createdAt,value
2023-11-30T00:00:44.346Z,3.77
2023-11-30T00:03:12.119Z,3.50
2023-11-30T00:05:39.482Z,3.77
2023-11-30T00:08:06.758Z,3.97
2023-11-30T00:10:34.097Z,3.70
2023-11-30T00:13:01.547Z,3.50
2023-11-30T00:15:28.947Z,3.37
2023-11-30T00:17:57.894Z,3.87
2023-11-30T00:20:25.547Z,3.37
2023-11-30T00:22:53.363Z,4.03
2023-11-30T00:25:20.851Z,2.97
2023-11-30T00:27:48.090Z,3.77
2023-11-30T00:30:15.626Z,3.77
2023-11-30T00:32:43.512Z,3.80
2023-11-30T00:35:11.216Z,3.93
2023-11-30T00:37:38.787Z,4.03
2023-11-30T00:40:06.799Z,4.17
2023-11-30T00:42:34.538Z,4.43
2023-11-30T00:45:02.184Z,4.33
2023-11-30T00:47:29.496Z,4.40
2023-11-30T00:49:56.763Z,4.37
2023-11-30T00:52:24.142Z,3.87
2023-11-30T00:54:51.486Z,4.70
2023-11-30T00:57:18.967Z,4.53
2023-11-30T00:59:47.685Z,4.43
2023-11-30T01:02:16.043Z,3.87
2023-11-30T01:04:43.393Z,3.87
2023-11-30T01:07:11.162Z,4.40
2023-11-30T01:09:41.566Z,4.17
2023-11-30T01:12:09.028Z,4.50
2023-11-30T01:14:36.351Z,4.30
2023-11-30T01:17:03.775Z,4.77
2023-11-30T01:19:31.055Z,4.03
2023-11-30T01:21:58.639Z,4.20
2023-11-30T01:24:25.987Z,3.80
2023-11-30T01:26:53.675Z,4.03
2023-11-30T01:29:21.212Z,4.37
2023-11-30T01:31:48.908Z,4.57
2023-11-30T01:34:16.575Z,4.43
2023-11-30T01:36:44.030Z,4.50
2023-11-30T01:39:13.883Z,4.60
2023-11-30T01:41:43.234Z,4.80
2023-11-30T01:44:10.917Z,4.90
2023-11-30T01:46:39.379Z,4.60
2023-11-30T01:49:09.807Z,4.43
2023-11-30T01:51:37.890Z,4.70
2023-11-30T01:54:06.212Z,4.33
2023-11-30T01:56:36.608Z,4.13
2023-11-30T01:59:04.147Z,4.53
2023-11-30T02:01:32.967Z,4.73
2023-11-30T02:04:08.802Z,4.07
2023-11-30T02:06:36.480Z,4.73
2023-11-30T02:09:03.942Z,4.20
2023-11-30T02:11:31.644Z,4.43
2023-11-30T02:13:59.605Z,3.83
2023-11-30T02:16:27.311Z,4.53
2023-11-30T02:18:55.209Z,5.07
2023-11-30T02:21:23.750Z,4.53
2023-11-30T02:23:51.783Z,4.07
2023-11-30T02:26:19.698Z,4.47
2023-11-30T02:28:47.386Z,4.80
2023-11-30T02:31:15.077Z,5.13
2023-11-30T02:33:42.481Z,5.47
2023-11-30T02:36:10.256Z,3.77
2023-11-30T02:38:37.491Z,4.60
2023-11-30T02:41:05.191Z,3.83
2023-11-30T02:43:32.585Z,4.60
2023-11-30T02:45:59.865Z,4.07
2023-11-30T02:48:27.180Z,4.17
2023-11-30T02:50:54.479Z,4.30
2023-11-30T02:53:22.501Z,4.00
2023-11-30T02:55:49.754Z,4.67
2023-11-30T02:58:17.141Z,3.97
2023-11-30T03:00:44.879Z,4.77
2023-11-30T03:03:12.212Z,4.20
2023-11-30T03:05:41.858Z,4.73
2023-11-30T03:08:09.180Z,4.33
2023-11-30T03:10:36.446Z,4.70
2023-11-30T03:13:03.867Z,4.60
2023-11-30T03:15:32.398Z,4.53
2023-11-30T03:17:59.863Z,4.53
2023-11-30T03:20:27.256Z,4.80
2023-11-30T03:22:54.825Z,4.37
2023-11-30T03:25:22.185Z,4.17
2023-11-30T03:27:49.541Z,4.27
2023-11-30T03:30:16.940Z,4.50
2023-11-30T03:32:44.432Z,4.57
2023-11-30T03:35:11.871Z,4.87
2023-11-30T03:37:41.695Z,4.70
2023-11-30T03:40:09.902Z,4.37
2023-11-30T03:42:37.207Z,4.23
2023-11-30T03:45:06.641Z,4.97
2023-11-30T03:47:34.296Z,4.57
2023-11-30T03:50:01.738Z,4.93
2023-11-30T03:52:29.056Z,4.63
2023-11-30T03:54:56.356Z,4.67
2023-11-30T03:57:23.702Z,4.50
2023-11-30T03:59:51.143Z,5.13
2023-11-30T04:02:18.952Z,5.00
2023-11-30T04:04:48.449Z,5.63
2023-11-30T04:07:17.498Z,6.20
2023-11-30T04:09:47.786Z,5.87
2023-11-30T04:12:15.229Z,5.67
2023-11-30T04:14:42.709Z,5.10
2023-11-30T04:17:10.393Z,5.90
2023-11-30T04:19:37.872Z,6.03
2023-11-30T04:22:05.548Z,5.30
2023-11-30T04:24:32.978Z,5.57
2023-11-30T04:27:01.579Z,5.50
2023-11-30T04:29:29.630Z,5.57
2023-11-30T04:31:56.881Z,5.93
2023-11-30T04:34:24.602Z,5.77
2023-11-30T04:36:52.104Z,5.67
2023-11-30T04:39:21.661Z,5.07
2023-11-30T04:41:49.395Z,5.33
2023-11-30T04:44:16.624Z,5.30
2023-11-30T04:46:44.428Z,6.10
2023-11-30T04:49:12.071Z,5.53
2023-11-30T04:51:40.108Z,6.10
2023-11-30T04:54:10.814Z,5.43
2023-11-30T04:56:38.583Z,5.90
2023-11-30T04:59:06.050Z,5.47
2023-11-30T05:01:34.276Z,4.77
2023-11-30T05:04:04.044Z,5.20
2023-11-30T05:06:32.176Z,5.93
2023-11-30T05:08:59.714Z,5.57
2023-11-30T05:11:28.461Z,5.83
2023-11-30T05:13:56.034Z,5.40
2023-11-30T05:16:23.669Z,5.27
2023-11-30T05:18:51.092Z,5.03
2023-11-30T05:21:20.072Z,5.63
2023-11-30T05:23:47.571Z,5.07
2023-11-30T05:26:14.869Z,5.87
2023-11-30T05:28:42.327Z,5.80
2023-11-30T05:31:09.654Z,6.00
2023-11-30T05:33:36.874Z,6.20
2023-11-30T05:36:04.740Z,5.67
2023-11-30T05:38:32.028Z,5.83
2023-11-30T05:40:59.500Z,6.17
2023-11-30T05:43:27.912Z,6.43
2023-11-30T05:45:55.183Z,6.30
2023-11-30T05:48:23.477Z,6.80
2023-11-30T05:50:52.440Z,6.83
2023-11-30T05:53:19.734Z,6.03
2023-11-30T05:55:47.147Z,5.63
2023-11-30T05:58:14.643Z,6.60
2023-11-30T06:00:41.987Z,6.33
2023-11-30T06:03:09.492Z,5.70
2023-11-30T06:05:36.810Z,5.83
2023-11-30T06:08:04.383Z,6.03
2023-11-30T06:10:31.651Z,6.00
2023-11-30T06:12:59.515Z,6.53
2023-11-30T06:15:27.983Z,6.57
2023-11-30T06:17:55.232Z,6.00
2023-11-30T06:20:23.733Z,7.03
2023-11-30T06:22:51.557Z,6.60
2023-11-30T06:25:19.104Z,7.27
2023-11-30T06:27:46.513Z,7.43
2023-11-30T06:30:14.353Z,8.00
2023-11-30T06:32:41.827Z,7.97
2023-11-30T06:35:09.751Z,7.53
2023-11-30T06:37:37.705Z,8.43
2023-11-30T06:40:05.738Z,8.73
2023-11-30T06:42:33.465Z,8.57
2023-11-30T06:45:01.384Z,8.80
2023-11-30T06:47:29.088Z,8.67
2023-11-30T06:49:56.825Z,9.30
2023-11-30T06:52:24.143Z,10.20
2023-11-30T06:54:51.651Z,9.70
2023-11-30T06:57:25.339Z,8.77
2023-11-30T06:59:52.635Z,13.90
2023-11-30T07:02:19.990Z,10.47
2023-11-30T07:04:47.476Z,9.80
2023-11-30T07:07:20.580Z,9.30
2023-11-30T07:09:55.507Z,9.10
2023-11-30T07:12:22.940Z,9.93
2023-11-30T07:14:51.776Z,9.73
2023-11-30T07:17:20.144Z,8.93
2023-11-30T07:19:47.389Z,9.40
2023-11-30T07:22:15.370Z,8.80
2023-11-30T07:24:45.786Z,8.97
2023-11-30T07:27:13.149Z,9.50
2023-11-30T07:29:53.755Z,8.83
2023-11-30T07:32:32.575Z,8.63
2023-11-30T07:35:01.932Z,8.73
2023-11-30T07:37:32.181Z,9.43
2023-11-30T07:40:00.265Z,9.93
2023-11-30T07:42:32.968Z,10.17
2023-11-30T07:45:05.256Z,10.07
2023-11-30T07:47:35.752Z,10.00
2023-11-30T07:50:05.985Z,10.47
2023-11-30T07:52:36.802Z,9.47
2023-11-30T07:55:06.460Z,10.83
2023-11-30T07:57:34.093Z,10.60
2023-11-30T08:00:09.654Z,11.93
2023-11-30T08:02:37.458Z,11.27
2023-11-30T08:05:08.033Z,11.57
2023-11-30T08:07:35.543Z,11.20
2023-11-30T08:10:06.314Z,10.37
2023-11-30T08:12:36.460Z,10.60
2023-11-30T08:15:10.584Z,9.97
2023-11-30T08:17:37.975Z,10.50
2023-11-30T08:20:10.381Z,10.43
2023-11-30T08:22:37.982Z,10.87
2023-11-30T08:25:06.480Z,10.97
2023-11-30T08:27:40.354Z,10.60
2023-11-30T08:30:11.201Z,10.27
2023-11-30T08:32:43.076Z,10.13
2023-11-30T08:35:16.098Z,9.90
2023-11-30T08:37:43.363Z,11.57
2023-11-30T08:40:17.137Z,11.43
2023-11-30T08:42:44.562Z,10.07
2023-11-30T08:45:12.224Z,9.07
2023-11-30T08:47:39.752Z,9.80
2023-11-30T08:50:07.933Z,10.77
2023-11-30T08:52:36.359Z,11.87
2023-11-30T08:55:05.866Z,11.87
2023-11-30T08:57:33.399Z,10.97
2023-11-30T09:00:00.900Z,11.37
2023-11-30T09:02:37.593Z,11.93
2023-11-30T09:05:06.456Z,13.83
2023-11-30T09:07:35.285Z,12.00
2023-11-30T09:10:04.541Z,12.60
2023-11-30T09:12:34.173Z,12.57
2023-11-30T09:15:03.056Z,11.10
2023-11-30T09:17:30.663Z,14.43
2023-11-30T09:19:58.113Z,14.70
2023-11-30T09:22:25.762Z,14.30
2023-11-30T09:24:53.547Z,14.93
2023-11-30T09:27:21.737Z,17.27
2023-11-30T09:29:52.343Z,13.67
2023-11-30T09:32:25.328Z,16.63
2023-11-30T09:35:06.371Z,14.77
2023-11-30T09:37:33.779Z,16.40
2023-11-30T09:40:07.382Z,15.40
2023-11-30T09:42:35.140Z,14.67
2023-11-30T09:45:08.672Z,13.70
2023-11-30T09:47:36.993Z,11.73
2023-11-30T09:50:04.872Z,13.30
2023-11-30T09:52:38.724Z,16.77
2023-11-30T09:55:12.430Z,12.60
2023-11-30T09:57:40.513Z,11.30
2023-11-30T10:00:08.776Z,12.67
2023-11-30T10:02:36.092Z,11.73
2023-11-30T10:05:06.761Z,11.60
2023-11-30T10:07:35.066Z,11.43
2023-11-30T10:10:04.922Z,12.67
2023-11-30T10:12:32.780Z,12.37
2023-11-30T10:15:02.396Z,12.73
2023-11-30T10:17:30.373Z,13.30
2023-11-30T10:19:59.106Z,11.60
2023-11-30T10:22:27.276Z,12.70
2023-11-30T10:24:54.668Z,13.00
2023-11-30T10:27:24.277Z,12.97
2023-11-30T10:29:55.311Z,14.87
2023-11-30T10:32:24.459Z,14.50
2023-11-30T10:34:56.289Z,12.23
2023-11-30T10:37:42.021Z,12.03
2023-11-30T10:40:16.243Z,11.07
2023-11-30T10:42:49.506Z,11.47
2023-11-30T10:45:22.070Z,12.43
2023-11-30T10:47:50.812Z,10.97
2023-11-30T10:50:22.514Z,13.40
2023-11-30T10:52:52.612Z,12.53
2023-11-30T10:55:26.606Z,14.40
2023-11-30T10:57:58.456Z,12.77
2023-11-30T11:00:34.032Z,11.60
2023-11-30T11:03:09.077Z,11.77
2023-11-30T11:05:47.105Z,12.17
2023-11-30T11:08:15.151Z,13.10
2023-11-30T11:10:48.731Z,12.37
2023-11-30T11:13:29.492Z,11.57
2023-11-30T11:16:04.187Z,10.73
2023-11-30T11:18:33.628Z,11.77
2023-11-30T11:21:02.411Z,12.07
2023-11-30T11:23:41.176Z,11.40
2023-11-30T11:26:08.536Z,9.80
2023-11-30T11:28:38.840Z,11.67
2023-11-30T11:31:07.746Z,11.57
2023-11-30T11:33:37.761Z,10.57
2023-11-30T11:36:05.671Z,9.23
2023-11-30T11:38:33.078Z,10.53
2023-11-30T11:41:03.140Z,11.50
2023-11-30T11:43:30.427Z,11.60
2023-11-30T11:45:57.899Z,11.27
2023-11-30T11:48:25.347Z,10.73
2023-11-30T11:51:00.042Z,10.97
2023-11-30T11:53:27.685Z,11.33
2023-11-30T11:56:03.348Z,10.67
2023-11-30T11:58:36.394Z,10.90
2023-11-30T12:01:05.967Z,10.80
2023-11-30T12:03:33.599Z,9.67
2023-11-30T12:06:01.101Z,10.33
2023-11-30T12:08:33.619Z,10.73
2023-11-30T12:11:00.985Z,10.27
2023-11-30T12:13:29.045Z,10.40
2023-11-30T12:15:56.528Z,9.93
2023-11-30T12:18:32.612Z,10.27
2023-11-30T12:21:00.514Z,10.57
2023-11-30T12:23:27.784Z,11.60
2023-11-30T12:25:56.624Z,16.23
2023-11-30T12:28:24.113Z,11.63
2023-11-30T12:30:51.587Z,12.13
2023-11-30T12:33:19.107Z,13.40
2023-11-30T12:35:46.440Z,12.07
2023-11-30T12:38:14.955Z,11.47
2023-11-30T12:40:42.554Z,10.87
2023-11-30T12:43:10.195Z,11.83
2023-11-30T12:45:37.664Z,11.27
2023-11-30T12:48:05.248Z,10.97
2023-11-30T12:50:32.874Z,11.73
2023-11-30T12:53:00.671Z,11.33
2023-11-30T12:55:28.426Z,9.97
2023-11-30T12:57:57.277Z,10.50
2023-11-30T13:00:24.959Z,9.93
2023-11-30T13:02:52.726Z,10.00
2023-11-30T13:05:22.380Z,11.10
2023-11-30T13:07:59.164Z,10.53
2023-11-30T13:10:28.211Z,12.37
2023-11-30T13:12:55.689Z,10.73
2023-11-30T13:15:24.023Z,11.60
2023-11-30T13:17:52.759Z,12.10
2023-11-30T13:20:20.407Z,14.77
2023-11-30T13:22:49.237Z,14.20
2023-11-30T13:25:16.885Z,14.70
2023-11-30T13:27:48.674Z,13.07
2023-11-30T13:30:17.710Z,12.97
2023-11-30T13:32:45.760Z,14.70
2023-11-30T13:35:13.238Z,13.93
2023-11-30T13:37:40.669Z,14.33
2023-11-30T13:40:09.208Z,13.60
2023-11-30T13:42:36.899Z,11.80
2023-11-30T13:45:06.867Z,13.93
2023-11-30T13:47:34.618Z,14.47
2023-11-30T13:50:04.487Z,14.20
2023-11-30T13:52:31.942Z,15.97
2023-11-30T13:55:00.227Z,13.47
2023-11-30T13:57:27.890Z,12.97
2023-11-30T13:59:55.690Z,12.47
2023-11-30T14:02:23.278Z,12.37
2023-11-30T14:04:50.775Z,15.40
2023-11-30T14:07:18.251Z,13.50
2023-11-30T14:09:45.972Z,18.00
2023-11-30T14:12:13.479Z,12.57
2023-11-30T14:14:42.409Z,13.37
2023-11-30T14:17:11.733Z,13.93
2023-11-30T14:19:44.456Z,14.20
2023-11-30T14:22:12.617Z,15.83
2023-11-30T14:24:41.412Z,12.27
2023-11-30T14:27:11.817Z,14.13
2023-11-30T14:29:39.337Z,13.87
2023-11-30T14:32:09.543Z,11.83
2023-11-30T14:34:38.012Z,12.23
2023-11-30T14:37:05.428Z,11.47
2023-11-30T14:39:32.865Z,12.53
2023-11-30T14:42:00.519Z,15.70
2023-11-30T14:44:29.799Z,13.07
2023-11-30T14:46:57.244Z,12.47
2023-11-30T14:49:27.516Z,15.57
2023-11-30T14:51:54.952Z,18.17
2023-11-30T14:54:22.387Z,13.80
2023-11-30T14:56:50.902Z,13.57
2023-11-30T14:59:18.500Z,11.10
2023-11-30T15:01:47.637Z,12.07
2023-11-30T15:04:16.711Z,11.30
2023-11-30T15:06:44.590Z,12.43
2023-11-30T15:09:12.678Z,11.73
2023-11-30T15:11:41.197Z,12.40
2023-11-30T15:14:08.530Z,12.93
2023-11-30T15:16:41.363Z,12.13
2023-11-30T15:19:11.138Z,11.20
2023-11-30T15:21:39.809Z,10.37
2023-11-30T15:24:08.522Z,10.63
2023-11-30T15:26:41.066Z,11.23
2023-11-30T15:29:10.487Z,10.60
2023-11-30T15:31:39.065Z,9.70
2023-11-30T15:34:06.544Z,9.87
2023-11-30T15:36:34.114Z,11.10
2023-11-30T15:39:12.899Z,10.33
2023-11-30T15:41:46.966Z,11.20
2023-11-30T15:44:15.375Z,11.43
2023-11-30T15:46:44.850Z,9.93
2023-11-30T15:49:13.520Z,9.40
2023-11-30T15:51:44.505Z,10.03
2023-11-30T15:54:11.913Z,10.17
2023-11-30T15:56:39.357Z,8.97
2023-11-30T15:59:06.786Z,9.17
2023-11-30T16:01:39.206Z,9.33
2023-11-30T16:04:09.204Z,8.50
2023-11-30T16:06:50.421Z,10.47
2023-11-30T16:09:27.842Z,9.77
2023-11-30T16:12:10.877Z,9.10
2023-11-30T16:14:40.197Z,9.67
2023-11-30T16:17:25.846Z,9.00
2023-11-30T16:19:53.319Z,10.93
2023-11-30T16:22:20.979Z,10.43
2023-11-30T16:24:52.757Z,10.20
2023-11-30T16:27:22.239Z,10.73
2023-11-30T16:29:51.936Z,9.40
2023-11-30T16:32:19.832Z,9.67
2023-11-30T16:34:47.139Z,10.77
2023-11-30T16:37:14.881Z,10.27
2023-11-30T16:39:42.314Z,11.70
2023-11-30T16:42:09.959Z,10.93
2023-11-30T16:44:37.473Z,10.97
2023-11-30T16:47:04.858Z,11.57
2023-11-30T16:49:32.881Z,11.73
2023-11-30T16:52:03.801Z,11.87
2023-11-30T16:54:33.922Z,13.27
2023-11-30T16:57:08.746Z,10.70
2023-11-30T16:59:36.057Z,10.60
2023-11-30T17:02:04.255Z,11.13
2023-11-30T17:04:32.429Z,11.40
2023-11-30T17:07:00.826Z,15.23
2023-11-30T17:09:28.774Z,17.47
2023-11-30T17:11:56.522Z,14.60
2023-11-30T17:14:24.158Z,14.53
2023-11-30T17:16:51.914Z,13.60
2023-11-30T17:19:19.360Z,14.17
2023-11-30T17:21:50.207Z,14.83
2023-11-30T17:24:18.701Z,15.03
2023-11-30T17:26:46.138Z,15.83
2023-11-30T17:29:14.867Z,13.40
2023-11-30T17:31:42.474Z,14.83
2023-11-30T17:34:10.083Z,14.17
2023-11-30T17:36:37.814Z,13.90
2023-11-30T17:39:06.262Z,14.10
2023-11-30T17:41:33.901Z,14.53
2023-11-30T17:44:05.039Z,13.80
2023-11-30T17:46:32.624Z,14.57
2023-11-30T17:49:00.315Z,14.53
2023-11-30T17:51:27.695Z,12.70
2023-11-30T17:53:55.449Z,13.60
2023-11-30T17:56:24.311Z,17.40
2023-11-30T17:58:51.710Z,13.17
2023-11-30T18:01:19.208Z,13.07
2023-11-30T18:03:47.946Z,14.33
2023-11-30T18:06:15.607Z,11.73
2023-11-30T18:08:44.152Z,14.13
2023-11-30T18:11:11.870Z,15.87
2023-11-30T18:13:39.504Z,12.57
2023-11-30T18:16:07.792Z,15.23
2023-11-30T18:18:35.248Z,12.77
2023-11-30T18:21:02.497Z,16.67
2023-11-30T18:23:31.421Z,14.43
2023-11-30T18:25:58.752Z,18.87
2023-11-30T18:28:28.148Z,15.97
2023-11-30T18:30:59.496Z,17.93
2023-11-30T18:33:29.246Z,14.93
2023-11-30T18:35:57.947Z,13.70
2023-11-30T18:38:28.084Z,14.83
2023-11-30T18:40:59.070Z,12.80
2023-11-30T18:43:26.859Z,13.57
2023-11-30T18:45:54.961Z,12.20
2023-11-30T18:48:24.435Z,15.03
2023-11-30T18:50:52.058Z,15.07
2023-11-30T18:53:20.674Z,16.10
2023-11-30T18:55:48.307Z,15.03
2023-11-30T18:58:17.254Z,16.93
2023-11-30T19:00:44.934Z,17.83
2023-11-30T19:03:12.769Z,13.67
2023-11-30T19:05:40.278Z,15.13
2023-11-30T19:08:07.665Z,14.73
2023-11-30T19:10:35.242Z,12.33
2023-11-30T19:13:02.682Z,13.40
2023-11-30T19:15:34.275Z,13.40
2023-11-30T19:18:04.261Z,15.27
2023-11-30T19:20:32.785Z,14.67
2023-11-30T19:23:00.303Z,12.53
2023-11-30T19:25:33.012Z,12.40
2023-11-30T19:28:00.339Z,12.63
2023-11-30T19:30:30.279Z,12.30
2023-11-30T19:32:58.674Z,11.73
2023-11-30T19:35:26.112Z,14.87
2023-11-30T19:37:53.519Z,13.30
2023-11-30T19:40:21.196Z,12.40
2023-11-30T19:42:51.725Z,12.40
2023-11-30T19:45:21.883Z,11.23
2023-11-30T19:47:49.510Z,11.47
2023-11-30T19:50:17.279Z,11.20
2023-11-30T19:52:44.569Z,15.23
2023-11-30T19:55:12.074Z,13.97
2023-11-30T19:57:42.050Z,12.83
2023-11-30T20:00:10.604Z,12.80
2023-11-30T20:02:38.587Z,11.80
2023-11-30T20:05:08.852Z,13.13
2023-11-30T20:07:36.497Z,10.63
2023-11-30T20:10:04.349Z,12.10
2023-11-30T20:12:31.751Z,11.73
2023-11-30T20:14:59.219Z,11.70
2023-11-30T20:17:26.691Z,12.30
2023-11-30T20:19:54.256Z,11.47
2023-11-30T20:22:22.098Z,10.80
2023-11-30T20:24:49.676Z,12.37
2023-11-30T20:27:17.316Z,10.00
2023-11-30T20:29:48.267Z,11.17
2023-11-30T20:32:15.624Z,11.00
2023-11-30T20:34:45.011Z,14.60
2023-11-30T20:37:12.326Z,13.40
2023-11-30T20:39:39.802Z,14.10
2023-11-30T20:42:07.876Z,14.27
2023-11-30T20:44:37.421Z,12.90
2023-11-30T20:47:04.929Z,11.97
2023-11-30T20:49:33.297Z,11.20
2023-11-30T20:52:03.058Z,12.53
2023-11-30T20:54:32.230Z,11.70
2023-11-30T20:56:59.654Z,11.67
2023-11-30T20:59:30.672Z,11.03
2023-11-30T21:01:59.800Z,11.33
2023-11-30T21:04:27.232Z,13.13
2023-11-30T21:06:54.962Z,11.77
2023-11-30T21:09:23.344Z,12.50
2023-11-30T21:11:55.478Z,14.60
2023-11-30T21:14:27.072Z,12.80
2023-11-30T21:16:54.674Z,12.43
2023-11-30T21:19:22.488Z,11.07
2023-11-30T21:21:50.110Z,12.37
2023-11-30T21:24:18.685Z,12.20
2023-11-30T21:26:46.264Z,12.47
2023-11-30T21:29:14.369Z,13.07
2023-11-30T21:31:42.102Z,13.40
2023-11-30T21:34:09.971Z,12.83
2023-11-30T21:36:43.358Z,12.37
2023-11-30T21:39:13.817Z,13.97
2023-11-30T21:41:41.446Z,14.50
2023-11-30T21:44:10.132Z,14.80
2023-11-30T21:46:37.997Z,14.27
2023-11-30T21:49:06.059Z,16.70
2023-11-30T21:51:34.023Z,17.07
2023-11-30T21:54:01.999Z,15.70
2023-11-30T21:56:29.672Z,17.30
2023-11-30T21:58:57.101Z,17.10
2023-11-30T22:01:26.381Z,14.77
2023-11-30T22:03:54.199Z,12.20
2023-11-30T22:06:21.954Z,13.30
2023-11-30T22:08:52.213Z,12.97
2023-11-30T22:11:19.526Z,14.23
2023-11-30T22:13:46.950Z,12.97
2023-11-30T22:16:18.746Z,11.97
2023-11-30T22:18:51.910Z,13.63
2023-11-30T22:21:19.713Z,12.60
2023-11-30T22:23:47.338Z,12.50
2023-11-30T22:26:14.623Z,12.63
2023-11-30T22:28:41.907Z,11.57
2023-11-30T22:31:09.259Z,12.93
2023-11-30T22:33:37.581Z,11.63
2023-11-30T22:36:06.259Z,12.67
2023-11-30T22:38:40.896Z,13.47
2023-11-30T22:41:11.424Z,13.93
2023-11-30T22:43:39.277Z,13.80
2023-11-30T22:46:07.160Z,14.57
2023-11-30T22:48:35.824Z,14.00
2023-11-30T22:51:03.680Z,14.67
2023-11-30T22:53:30.978Z,13.93
2023-11-30T22:55:58.355Z,13.57
2023-11-30T22:58:25.962Z,13.20
2023-11-30T23:00:53.720Z,14.60
2023-11-30T23:03:21.387Z,14.17
2023-11-30T23:05:49.043Z,14.20
2023-11-30T23:08:16.488Z,12.83
2023-11-30T23:10:44.423Z,12.53
2023-11-30T23:13:12.018Z,13.17
2023-11-30T23:15:39.703Z,11.37
2023-11-30T23:18:07.212Z,10.70
2023-11-30T23:20:34.523Z,11.10
2023-11-30T23:23:01.822Z,11.07
2023-11-30T23:25:29.247Z,10.67
2023-11-30T23:27:56.714Z,11.27
2023-11-30T23:30:24.367Z,10.33
2023-11-30T23:32:53.156Z,10.57
2023-11-30T23:35:20.711Z,11.50
2023-11-30T23:37:48.630Z,10.83
2023-11-30T23:40:16.119Z,11.30
2023-11-30T23:42:44.099Z,10.27
2023-11-30T23:45:11.878Z,11.80
2023-11-30T23:47:39.436Z,10.30
2023-11-30T23:50:07.602Z,10.47
2023-11-30T23:52:34.849Z,10.13
2023-11-30T23:55:03.041Z,9.43
2023-11-30T23:57:32.417Z,8.50
